sensor_id;sensor_type;location;lat;lon;timestamp;P1;durP1;ratioP1;P2;durP2;ratioP2
24008;SDS011;12217;50.792;4.372;2024-03-17T00:01:01;8.07;;;6.15;;
24008;SDS011;12217;50.792;4.372;2024-03-17T00:03:28;9.77;;;6.32;;
24008;SDS011;12217;50.792;4.372;2024-03-17T00:05:57;7.72;;;6.25;;
24008;SDS011;12217;50.792;4.372;2024-03-17T00:08:23;8.82;;;6.60;;
24008;SDS011;12217;50.792;4.372;2024-03-17T00:10:50;9.45;;;6.25;;
24008;SDS011;12217;50.792;4.372;2024-03-17T00:13:16;7.57;;;6.18;;
24008;SDS011;12217;50.792;4.372;2024-03-17T00:15:42;8.10;;;6.30;;
24008;SDS011;12217;50.792;4.372;2024-03-17T00:18:08;10.85;;;6.22;;
24008;SDS011;12217;50.792;4.372;2024-03-17T00:20:35;10.98;;;6.13;;
24008;SDS011;12217;50.792;4.372;2024-03-17T00:23:01;8.27;;;6.05;;
24008;SDS011;12217;50.792;4.372;2024-03-17T00:25:27;8.60;;;5.95;;
24008;SDS011;12217;50.792;4.372;2024-03-17T00:27:53;7.72;;;5.75;;
24008;SDS011;12217;50.792;4.372;2024-03-17T00:30:22;8.45;;;6.38;;
24008;SDS011;12217;50.792;4.372;2024-03-17T00:32:47;7.75;;;5.85;;
24008;SDS011;12217;50.792;4.372;2024-03-17T00:35:13;8.15;;;6.15;;
24008;SDS011;12217;50.792;4.372;2024-03-17T00:37:45;11.27;;;6.00;;
24008;SDS011;12217;50.792;4.372;2024-03-17T00:40:15;7.88;;;5.68;;
24008;SDS011;12217;50.792;4.372;2024-03-17T00:42:41;10.65;;;5.68;;
24008;SDS011;12217;50.792;4.372;2024-03-17T00:45:07;8.45;;;5.90;;
24008;SDS011;12217;50.792;4.372;2024-03-17T00:47:34;10.40;;;6.38;;
24008;SDS011;12217;50.792;4.372;2024-03-17T00:50:00;11.50;;;5.88;;
24008;SDS011;12217;50.792;4.372;2024-03-17T00:52:26;9.25;;;6.20;;
24008;SDS011;12217;50.792;4.372;2024-03-17T00:54:52;9.20;;;6.53;;
24008;SDS011;12217;50.792;4.372;2024-03-17T00:57:19;8.88;;;6.45;;
24008;SDS011;12217;50.792;4.372;2024-03-17T00:59:44;11.07;;;6.50;;
24008;SDS011;12217;50.792;4.372;2024-03-17T01:02:14;11.43;;;7.13;;
24008;SDS011;12217;50.792;4.372;2024-03-17T01:04:43;11.88;;;7.10;;
24008;SDS011;12217;50.792;4.372;2024-03-17T01:07:10;10.55;;;6.90;;
24008;SDS011;12217;50.792;4.372;2024-03-17T01:09:36;10.70;;;7.22;;
24008;SDS011;12217;50.792;4.372;2024-03-17T01:12:02;13.90;;;7.45;;
24008;SDS011;12217;50.792;4.372;2024-03-17T01:14:28;10.02;;;7.18;;
24008;SDS011;12217;50.792;4.372;2024-03-17T01:16:54;10.73;;;7.43;;
24008;SDS011;12217;50.792;4.372;2024-03-17T01:19:20;9.90;;;7.55;;
24008;SDS011;12217;50.792;4.372;2024-03-17T01:21:46;11.40;;;7.75;;
24008;SDS011;12217;50.792;4.372;2024-03-17T01:24:12;11.50;;;7.13;;
24008;SDS011;12217;50.792;4.372;2024-03-17T01:26:38;11.50;;;7.57;;
24008;SDS011;12217;50.792;4.372;2024-03-17T01:29:03;12.55;;;7.72;;
24008;SDS011;12217;50.792;4.372;2024-03-17T01:31:29;9.60;;;7.28;;
24008;SDS011;12217;50.792;4.372;2024-03-17T01:33:55;11.77;;;7.63;;
24008;SDS011;12217;50.792;4.372;2024-03-17T01:36:20;11.85;;;7.70;;
24008;SDS011;12217;50.792;4.372;2024-03-17T01:38:46;12.15;;;8.40;;
24008;SDS011;12217;50.792;4.372;2024-03-17T01:41:12;11.30;;;7.15;;
24008;SDS011;12217;50.792;4.372;2024-03-17T01:43:38;12.50;;;7.85;;
24008;SDS011;12217;50.792;4.372;2024-03-17T01:46:04;13.38;;;7.38;;
24008;SDS011;12217;50.792;4.372;2024-03-17T01:48:31;11.25;;;7.78;;
24008;SDS011;12217;50.792;4.372;2024-03-17T01:50:56;11.35;;;7.60;;
24008;SDS011;12217;50.792;4.372;2024-03-17T01:53:23;11.23;;;7.68;;
24008;SDS011;12217;50.792;4.372;2024-03-17T01:55:50;10.48;;;8.07;;
24008;SDS011;12217;50.792;4.372;2024-03-17T01:58:20;8.48;;;7.57;;
24008;SDS011;12217;50.792;4.372;2024-03-17T02:00:49;9.73;;;7.93;;
24008;SDS011;12217;50.792;4.372;2024-03-17T02:03:17;11.93;;;7.13;;
24008;SDS011;12217;50.792;4.372;2024-03-17T02:05:42;10.23;;;8.00;;
24008;SDS011;12217;50.792;4.372;2024-03-17T02:08:10;14.32;;;8.23;;
24008;SDS011;12217;50.792;4.372;2024-03-17T02:10:36;10.40;;;7.10;;
24008;SDS011;12217;50.792;4.372;2024-03-17T02:13:02;13.10;;;7.65;;
24008;SDS011;12217;50.792;4.372;2024-03-17T02:15:29;11.55;;;7.55;;
24008;SDS011;12217;50.792;4.372;2024-03-17T02:17:55;8.98;;;6.82;;
24008;SDS011;12217;50.792;4.372;2024-03-17T02:20:20;10.55;;;7.38;;
24008;SDS011;12217;50.792;4.372;2024-03-17T02:22:50;10.20;;;7.00;;
24008;SDS011;12217;50.792;4.372;2024-03-17T02:25:15;9.57;;;7.05;;
24008;SDS011;12217;50.792;4.372;2024-03-17T02:27:41;9.52;;;7.25;;
24008;SDS011;12217;50.792;4.372;2024-03-17T02:30:06;10.05;;;7.53;;
24008;SDS011;12217;50.792;4.372;2024-03-17T02:32:34;12.15;;;7.47;;
24008;SDS011;12217;50.792;4.372;2024-03-17T02:35:00;12.68;;;7.15;;
24008;SDS011;12217;50.792;4.372;2024-03-17T02:37:26;9.65;;;6.65;;
24008;SDS011;12217;50.792;4.372;2024-03-17T02:39:52;10.77;;;7.57;;
24008;SDS011;12217;50.792;4.372;2024-03-17T02:42:18;10.70;;;7.30;;
24008;SDS011;12217;50.792;4.372;2024-03-17T02:44:44;12.68;;;6.70;;
24008;SDS011;12217;50.792;4.372;2024-03-17T02:47:10;9.50;;;6.75;;
24008;SDS011;12217;50.792;4.372;2024-03-17T02:49:39;11.13;;;7.03;;
24008;SDS011;12217;50.792;4.372;2024-03-17T02:52:08;10.35;;;6.93;;
24008;SDS011;12217;50.792;4.372;2024-03-17T02:54:35;12.13;;;6.72;;
24008;SDS011;12217;50.792;4.372;2024-03-17T02:57:05;9.93;;;7.07;;
24008;SDS011;12217;50.792;4.372;2024-03-17T02:59:31;9.73;;;7.10;;
24008;SDS011;12217;50.792;4.372;2024-03-17T03:01:58;9.05;;;6.72;;
24008;SDS011;12217;50.792;4.372;2024-03-17T03:04:24;10.75;;;6.97;;
24008;SDS011;12217;50.792;4.372;2024-03-17T03:06:50;12.10;;;7.03;;
24008;SDS011;12217;50.792;4.372;2024-03-17T03:09:15;9.50;;;6.90;;
24008;SDS011;12217;50.792;4.372;2024-03-17T03:11:50;13.07;;;6.55;;
24008;SDS011;12217;50.792;4.372;2024-03-17T03:14:17;9.50;;;6.82;;
24008;SDS011;12217;50.792;4.372;2024-03-17T03:16:42;11.23;;;6.80;;
24008;SDS011;12217;50.792;4.372;2024-03-17T03:19:08;11.60;;;7.35;;
24008;SDS011;12217;50.792;4.372;2024-03-17T03:21:34;13.30;;;6.60;;
24008;SDS011;12217;50.792;4.372;2024-03-17T03:24:00;12.23;;;6.82;;
24008;SDS011;12217;50.792;4.372;2024-03-17T03:26:26;9.45;;;6.53;;
24008;SDS011;12217;50.792;4.372;2024-03-17T03:28:53;9.85;;;6.97;;
24008;SDS011;12217;50.792;4.372;2024-03-17T03:31:20;10.20;;;7.25;;
24008;SDS011;12217;50.792;4.372;2024-03-17T03:33:46;9.00;;;7.22;;
24008;SDS011;12217;50.792;4.372;2024-03-17T03:36:13;11.48;;;7.25;;
24008;SDS011;12217;50.792;4.372;2024-03-17T03:38:39;8.02;;;6.97;;
24008;SDS011;12217;50.792;4.372;2024-03-17T03:41:08;8.45;;;6.72;;
24008;SDS011;12217;50.792;4.372;2024-03-17T03:43:35;10.82;;;7.70;;
24008;SDS011;12217;50.792;4.372;2024-03-17T03:46:01;14.18;;;7.25;;
24008;SDS011;12217;50.792;4.372;2024-03-17T03:48:27;9.60;;;7.18;;
24008;SDS011;12217;50.792;4.372;2024-03-17T03:50:53;9.90;;;6.80;;
24008;SDS011;12217;50.792;4.372;2024-03-17T03:53:19;13.13;;;7.35;;
24008;SDS011;12217;50.792;4.372;2024-03-17T03:55:45;12.55;;;7.38;;
24008;SDS011;12217;50.792;4.372;2024-03-17T03:58:11;12.05;;;6.97;;
24008;SDS011;12217;50.792;4.372;2024-03-17T04:00:37;10.52;;;7.45;;
24008;SDS011;12217;50.792;4.372;2024-03-17T04:03:04;9.82;;;7.10;;
24008;SDS011;12217;50.792;4.372;2024-03-17T04:05:30;10.30;;;7.85;;
24008;SDS011;12217;50.792;4.372;2024-03-17T04:07:56;9.07;;;7.05;;
24008;SDS011;12217;50.792;4.372;2024-03-17T04:10:21;11.40;;;7.65;;
24008;SDS011;12217;50.792;4.372;2024-03-17T04:12:49;12.05;;;7.90;;
24008;SDS011;12217;50.792;4.372;2024-03-17T04:15:14;10.35;;;7.63;;
24008;SDS011;12217;50.792;4.372;2024-03-17T04:17:40;15.05;;;7.45;;
24008;SDS011;12217;50.792;4.372;2024-03-17T04:20:07;9.93;;;7.80;;
24008;SDS011;12217;50.792;4.372;2024-03-17T04:22:34;13.48;;;8.00;;
24008;SDS011;12217;50.792;4.372;2024-03-17T04:25:00;10.25;;;7.40;;
24008;SDS011;12217;50.792;4.372;2024-03-17T04:27:26;13.95;;;7.90;;
24008;SDS011;12217;50.792;4.372;2024-03-17T04:29:53;18.55;;;9.57;;
24008;SDS011;12217;50.792;4.372;2024-03-17T04:32:20;11.32;;;8.15;;
24008;SDS011;12217;50.792;4.372;2024-03-17T04:34:46;12.63;;;8.30;;
24008;SDS011;12217;50.792;4.372;2024-03-17T04:37:12;12.60;;;8.00;;
24008;SDS011;12217;50.792;4.372;2024-03-17T04:39:38;12.38;;;8.25;;
24008;SDS011;12217;50.792;4.372;2024-03-17T04:42:11;13.70;;;8.00;;
24008;SDS011;12217;50.792;4.372;2024-03-17T04:44:39;9.27;;;7.60;;
24008;SDS011;12217;50.792;4.372;2024-03-17T04:47:05;14.85;;;7.97;;
24008;SDS011;12217;50.792;4.372;2024-03-17T04:49:35;14.30;;;7.78;;
24008;SDS011;12217;50.792;4.372;2024-03-17T04:52:02;11.52;;;8.05;;
24008;SDS011;12217;50.792;4.372;2024-03-17T04:54:28;13.05;;;7.68;;
24008;SDS011;12217;50.792;4.372;2024-03-17T04:56:53;12.77;;;7.88;;
24008;SDS011;12217;50.792;4.372;2024-03-17T04:59:19;9.05;;;7.22;;
24008;SDS011;12217;50.792;4.372;2024-03-17T05:01:44;10.68;;;7.53;;
24008;SDS011;12217;50.792;4.372;2024-03-17T05:04:10;14.80;;;7.88;;
24008;SDS011;12217;50.792;4.372;2024-03-17T05:06:36;10.70;;;7.68;;
24008;SDS011;12217;50.792;4.372;2024-03-17T05:09:02;12.00;;;7.65;;
24008;SDS011;12217;50.792;4.372;2024-03-17T05:11:30;9.93;;;7.25;;
24008;SDS011;12217;50.792;4.372;2024-03-17T05:13:56;10.77;;;7.50;;
24008;SDS011;12217;50.792;4.372;2024-03-17T05:16:22;9.95;;;7.57;;
24008;SDS011;12217;50.792;4.372;2024-03-17T05:18:49;11.05;;;7.47;;
24008;SDS011;12217;50.792;4.372;2024-03-17T05:21:14;10.25;;;7.38;;
24008;SDS011;12217;50.792;4.372;2024-03-17T05:23:40;11.30;;;7.18;;
24008;SDS011;12217;50.792;4.372;2024-03-17T05:26:06;11.45;;;7.45;;
24008;SDS011;12217;50.792;4.372;2024-03-17T05:28:32;9.40;;;7.45;;
24008;SDS011;12217;50.792;4.372;2024-03-17T05:30:58;9.85;;;7.10;;
24008;SDS011;12217;50.792;4.372;2024-03-17T05:33:24;12.55;;;7.90;;
24008;SDS011;12217;50.792;4.372;2024-03-17T05:35:51;11.95;;;7.32;;
24008;SDS011;12217;50.792;4.372;2024-03-17T05:38:18;10.80;;;7.75;;
24008;SDS011;12217;50.792;4.372;2024-03-17T05:40:52;10.57;;;7.80;;
24008;SDS011;12217;50.792;4.372;2024-03-17T05:43:31;9.43;;;7.40;;
24008;SDS011;12217;50.792;4.372;2024-03-17T05:46:01;13.60;;;7.50;;
24008;SDS011;12217;50.792;4.372;2024-03-17T05:48:28;11.75;;;7.15;;
24008;SDS011;12217;50.792;4.372;2024-03-17T05:50:56;11.85;;;7.75;;
24008;SDS011;12217;50.792;4.372;2024-03-17T05:53:22;13.07;;;7.57;;
24008;SDS011;12217;50.792;4.372;2024-03-17T05:55:52;11.63;;;7.65;;
24008;SDS011;12217;50.792;4.372;2024-03-17T05:58:17;12.38;;;7.55;;
24008;SDS011;12217;50.792;4.372;2024-03-17T06:00:43;12.70;;;7.80;;
24008;SDS011;12217;50.792;4.372;2024-03-17T06:03:09;11.73;;;8.15;;
24008;SDS011;12217;50.792;4.372;2024-03-17T06:05:36;12.77;;;8.00;;
24008;SDS011;12217;50.792;4.372;2024-03-17T06:08:03;13.02;;;7.78;;
24008;SDS011;12217;50.792;4.372;2024-03-17T06:10:30;13.30;;;7.70;;
24008;SDS011;12217;50.792;4.372;2024-03-17T06:12:58;12.05;;;7.95;;
24008;SDS011;12217;50.792;4.372;2024-03-17T06:15:24;13.85;;;8.32;;
24008;SDS011;12217;50.792;4.372;2024-03-17T06:17:50;10.60;;;7.75;;
24008;SDS011;12217;50.792;4.372;2024-03-17T06:20:17;12.75;;;8.32;;
24008;SDS011;12217;50.792;4.372;2024-03-17T06:22:43;13.68;;;7.88;;
24008;SDS011;12217;50.792;4.372;2024-03-17T06:25:10;13.77;;;8.30;;
24008;SDS011;12217;50.792;4.372;2024-03-17T06:27:36;11.40;;;7.80;;
24008;SDS011;12217;50.792;4.372;2024-03-17T06:30:02;12.00;;;7.72;;
24008;SDS011;12217;50.792;4.372;2024-03-17T06:32:31;12.60;;;7.70;;
24008;SDS011;12217;50.792;4.372;2024-03-17T06:35:03;14.05;;;7.93;;
24008;SDS011;12217;50.792;4.372;2024-03-17T06:37:28;13.40;;;8.32;;
24008;SDS011;12217;50.792;4.372;2024-03-17T06:39:54;11.05;;;7.97;;
24008;SDS011;12217;50.792;4.372;2024-03-17T06:42:20;14.43;;;8.30;;
24008;SDS011;12217;50.792;4.372;2024-03-17T06:44:45;12.15;;;7.53;;
24008;SDS011;12217;50.792;4.372;2024-03-17T06:47:11;12.65;;;8.38;;
24008;SDS011;12217;50.792;4.372;2024-03-17T06:49:37;13.23;;;7.97;;
24008;SDS011;12217;50.792;4.372;2024-03-17T06:52:03;12.88;;;8.43;;
24008;SDS011;12217;50.792;4.372;2024-03-17T06:54:28;14.05;;;7.38;;
24008;SDS011;12217;50.792;4.372;2024-03-17T06:56:54;9.70;;;7.60;;
24008;SDS011;12217;50.792;4.372;2024-03-17T06:59:20;10.45;;;7.30;;
24008;SDS011;12217;50.792;4.372;2024-03-17T07:01:49;11.73;;;7.30;;
24008;SDS011;12217;50.792;4.372;2024-03-17T07:04:15;14.50;;;7.68;;
24008;SDS011;12217;50.792;4.372;2024-03-17T07:06:41;10.55;;;7.28;;
24008;SDS011;12217;50.792;4.372;2024-03-17T07:09:07;9.18;;;6.85;;
24008;SDS011;12217;50.792;4.372;2024-03-17T07:11:33;10.43;;;7.85;;
24008;SDS011;12217;50.792;4.372;2024-03-17T07:13:59;8.65;;;7.13;;
24008;SDS011;12217;50.792;4.372;2024-03-17T07:16:25;11.60;;;7.45;;
24008;SDS011;12217;50.792;4.372;2024-03-17T07:18:51;11.50;;;7.40;;
24008;SDS011;12217;50.792;4.372;2024-03-17T07:21:17;8.35;;;6.82;;
24008;SDS011;12217;50.792;4.372;2024-03-17T07:23:43;11.55;;;7.35;;
24008;SDS011;12217;50.792;4.372;2024-03-17T07:26:09;9.88;;;7.13;;
24008;SDS011;12217;50.792;4.372;2024-03-17T07:28:35;9.20;;;7.10;;
24008;SDS011;12217;50.792;4.372;2024-03-17T07:31:05;13.52;;;7.40;;
24008;SDS011;12217;50.792;4.372;2024-03-17T07:33:33;8.85;;;7.25;;
24008;SDS011;12217;50.792;4.372;2024-03-17T07:35:59;11.07;;;7.50;;
24008;SDS011;12217;50.792;4.372;2024-03-17T07:38:26;12.38;;;7.75;;
24008;SDS011;12217;50.792;4.372;2024-03-17T07:41:02;9.65;;;6.82;;
24008;SDS011;12217;50.792;4.372;2024-03-17T07:43:30;10.75;;;7.05;;
24008;SDS011;12217;50.792;4.372;2024-03-17T07:46:07;14.10;;;7.72;;
24008;SDS011;12217;50.792;4.372;2024-03-17T07:48:36;12.60;;;7.28;;
24008;SDS011;12217;50.792;4.372;2024-03-17T07:51:04;12.20;;;7.55;;
24008;SDS011;12217;50.792;4.372;2024-03-17T07:53:31;11.05;;;7.60;;
24008;SDS011;12217;50.792;4.372;2024-03-17T07:56:10;11.02;;;6.75;;
24008;SDS011;12217;50.792;4.372;2024-03-17T07:58:38;11.40;;;7.68;;
24008;SDS011;12217;50.792;4.372;2024-03-17T08:01:06;10.05;;;7.20;;
24008;SDS011;12217;50.792;4.372;2024-03-17T08:03:39;11.38;;;7.05;;
24008;SDS011;12217;50.792;4.372;2024-03-17T08:06:09;10.30;;;6.55;;
24008;SDS011;12217;50.792;4.372;2024-03-17T08:08:36;9.40;;;7.25;;
24008;SDS011;12217;50.792;4.372;2024-03-17T08:11:02;11.18;;;6.90;;
24008;SDS011;12217;50.792;4.372;2024-03-17T08:13:30;12.52;;;6.88;;
24008;SDS011;12217;50.792;4.372;2024-03-17T08:16:03;10.80;;;6.53;;
24008;SDS011;12217;50.792;4.372;2024-03-17T08:18:33;9.68;;;6.50;;
24008;SDS011;12217;50.792;4.372;2024-03-17T08:20:59;10.75;;;6.70;;
24008;SDS011;12217;50.792;4.372;2024-03-17T08:23:26;8.85;;;6.22;;
24008;SDS011;12217;50.792;4.372;2024-03-17T08:25:52;10.38;;;6.43;;
24008;SDS011;12217;50.792;4.372;2024-03-17T08:28:22;11.13;;;6.78;;
24008;SDS011;12217;50.792;4.372;2024-03-17T08:30:52;7.05;;;5.88;;
24008;SDS011;12217;50.792;4.372;2024-03-17T08:33:28;9.38;;;6.20;;
24008;SDS011;12217;50.792;4.372;2024-03-17T08:38:21;8.85;;;6.13;;
24008;SDS011;12217;50.792;4.372;2024-03-17T08:40:48;7.90;;;5.57;;
24008;SDS011;12217;50.792;4.372;2024-03-17T08:43:17;11.30;;;6.43;;
24008;SDS011;12217;50.792;4.372;2024-03-17T08:45:44;9.43;;;6.22;;
24008;SDS011;12217;50.792;4.372;2024-03-17T08:48:10;8.82;;;5.75;;
24008;SDS011;12217;50.792;4.372;2024-03-17T08:50:36;9.60;;;6.00;;
24008;SDS011;12217;50.792;4.372;2024-03-17T08:53:02;9.07;;;5.78;;
24008;SDS011;12217;50.792;4.372;2024-03-17T08:55:27;8.05;;;6.25;;
24008;SDS011;12217;50.792;4.372;2024-03-17T08:57:53;7.75;;;5.47;;
24008;SDS011;12217;50.792;4.372;2024-03-17T09:00:19;9.60;;;6.20;;
24008;SDS011;12217;50.792;4.372;2024-03-17T09:02:44;11.85;;;6.03;;
24008;SDS011;12217;50.792;4.372;2024-03-17T09:05:10;8.75;;;5.70;;
24008;SDS011;12217;50.792;4.372;2024-03-17T09:07:37;8.70;;;6.00;;
24008;SDS011;12217;50.792;4.372;2024-03-17T09:10:04;8.15;;;5.70;;
24008;SDS011;12217;50.792;4.372;2024-03-17T09:12:30;9.80;;;5.88;;
24008;SDS011;12217;50.792;4.372;2024-03-17T09:14:56;8.38;;;5.63;;
24008;SDS011;12217;50.792;4.372;2024-03-17T09:17:21;10.80;;;5.75;;
24008;SDS011;12217;50.792;4.372;2024-03-17T09:19:47;8.85;;;5.47;;
24008;SDS011;12217;50.792;4.372;2024-03-17T09:22:13;13.30;;;5.53;;
24008;SDS011;12217;50.792;4.372;2024-03-17T09:24:38;9.43;;;6.22;;
24008;SDS011;12217;50.792;4.372;2024-03-17T09:27:05;8.95;;;5.72;;
24008;SDS011;12217;50.792;4.372;2024-03-17T09:29:31;7.43;;;5.43;;
24008;SDS011;12217;50.792;4.372;2024-03-17T09:31:58;9.77;;;5.90;;
24008;SDS011;12217;50.792;4.372;2024-03-17T09:34:23;8.25;;;5.63;;
24008;SDS011;12217;50.792;4.372;2024-03-17T09:36:49;8.32;;;5.70;;
24008;SDS011;12217;50.792;4.372;2024-03-17T09:39:15;9.23;;;5.40;;
24008;SDS011;12217;50.792;4.372;2024-03-17T09:41:41;7.07;;;5.25;;
24008;SDS011;12217;50.792;4.372;2024-03-17T09:44:09;7.40;;;5.53;;
24008;SDS011;12217;50.792;4.372;2024-03-17T09:46:38;10.57;;;5.87;;
24008;SDS011;12217;50.792;4.372;2024-03-17T09:49:04;9.73;;;5.57;;
24008;SDS011;12217;50.792;4.372;2024-03-17T09:51:33;8.15;;;5.28;;
24008;SDS011;12217;50.792;4.372;2024-03-17T09:54:01;10.15;;;5.65;;
24008;SDS011;12217;50.792;4.372;2024-03-17T09:56:40;9.73;;;5.65;;
24008;SDS011;12217;50.792;4.372;2024-03-17T09:59:06;12.32;;;5.20;;
24008;SDS011;12217;50.792;4.372;2024-03-17T10:01:32;8.35;;;5.10;;
24008;SDS011;12217;50.792;4.372;2024-03-17T10:03:58;10.40;;;4.72;;
24008;SDS011;12217;50.792;4.372;2024-03-17T10:06:26;6.72;;;4.97;;
24008;SDS011;12217;50.792;4.372;2024-03-17T10:08:56;11.85;;;5.25;;
24008;SDS011;12217;50.792;4.372;2024-03-17T10:11:24;8.95;;;5.57;;
24008;SDS011;12217;50.792;4.372;2024-03-17T10:16:25;7.10;;;5.03;;
24008;SDS011;12217;50.792;4.372;2024-03-17T10:19:10;8.48;;;4.97;;
24008;SDS011;12217;50.792;4.372;2024-03-17T10:21:41;8.05;;;4.97;;
24008;SDS011;12217;50.792;4.372;2024-03-17T10:24:12;7.30;;;4.95;;
24008;SDS011;12217;50.792;4.372;2024-03-17T10:29:27;8.88;;;4.95;;
24008;SDS011;12217;50.792;4.372;2024-03-17T10:32:03;9.80;;;5.20;;
24008;SDS011;12217;50.792;4.372;2024-03-17T10:34:41;9.55;;;4.80;;
24008;SDS011;12217;50.792;4.372;2024-03-17T10:37:13;6.30;;;4.30;;
24008;SDS011;12217;50.792;4.372;2024-03-17T10:39:41;9.80;;;4.53;;
24008;SDS011;12217;50.792;4.372;2024-03-17T10:42:08;11.95;;;4.53;;
24008;SDS011;12217;50.792;4.372;2024-03-17T10:44:39;7.53;;;4.25;;
24008;SDS011;12217;50.792;4.372;2024-03-17T10:47:06;8.93;;;4.50;;
24008;SDS011;12217;50.792;4.372;2024-03-17T10:49:35;5.32;;;3.88;;
24008;SDS011;12217;50.792;4.372;2024-03-17T10:52:04;6.15;;;3.85;;
24008;SDS011;12217;50.792;4.372;2024-03-17T10:54:40;9.95;;;4.38;;
24008;SDS011;12217;50.792;4.372;2024-03-17T11:00:04;8.40;;;3.95;;
24008;SDS011;12217;50.792;4.372;2024-03-17T11:02:33;6.18;;;3.85;;
24008;SDS011;12217;50.792;4.372;2024-03-17T11:05:04;7.10;;;4.18;;
24008;SDS011;12217;50.792;4.372;2024-03-17T11:07:37;7.97;;;4.20;;
24008;SDS011;12217;50.792;4.372;2024-03-17T11:10:08;6.93;;;3.70;;
24008;SDS011;12217;50.792;4.372;2024-03-17T11:20:15;8.27;;;4.60;;
24008;SDS011;12217;50.792;4.372;2024-03-17T11:22:49;6.90;;;3.50;;
24008;SDS011;12217;50.792;4.372;2024-03-17T11:27:51;7.43;;;3.45;;
24008;SDS011;12217;50.792;4.372;2024-03-17T11:38:51;8.38;;;3.85;;
24008;SDS011;12217;50.792;4.372;2024-03-17T11:41:44;9.20;;;2.88;;
24008;SDS011;12217;50.792;4.372;2024-03-17T11:46:44;8.23;;;2.65;;
24008;SDS011;12217;50.792;4.372;2024-03-17T11:49:29;5.30;;;2.08;;
24008;SDS011;12217;50.792;4.372;2024-03-17T11:51:56;6.75;;;2.17;;
24008;SDS011;12217;50.792;4.372;2024-03-17T11:54:27;6.88;;;2.10;;
24008;SDS011;12217;50.792;4.372;2024-03-17T11:56:55;5.93;;;2.58;;
24008;SDS011;12217;50.792;4.372;2024-03-17T11:59:25;5.35;;;1.92;;
24008;SDS011;12217;50.792;4.372;2024-03-17T12:01:51;5.82;;;2.20;;
24008;SDS011;12217;50.792;4.372;2024-03-17T12:04:18;7.38;;;2.47;;
24008;SDS011;12217;50.792;4.372;2024-03-17T12:09:22;4.88;;;2.33;;
24008;SDS011;12217;50.792;4.372;2024-03-17T12:14:26;6.53;;;2.30;;
24008;SDS011;12217;50.792;4.372;2024-03-17T12:16:53;5.53;;;2.05;;
24008;SDS011;12217;50.792;4.372;2024-03-17T12:19:21;7.35;;;2.47;;
24008;SDS011;12217;50.792;4.372;2024-03-17T12:21:48;7.47;;;2.35;;
24008;SDS011;12217;50.792;4.372;2024-03-17T12:24:18;8.20;;;2.38;;
24008;SDS011;12217;50.792;4.372;2024-03-17T12:26:46;5.15;;;1.98;;
24008;SDS011;12217;50.792;4.372;2024-03-17T12:29:31;5.50;;;2.08;;
24008;SDS011;12217;50.792;4.372;2024-03-17T12:32:04;6.63;;;1.95;;
24008;SDS011;12217;50.792;4.372;2024-03-17T12:34:31;6.47;;;1.80;;
24008;SDS011;12217;50.792;4.372;2024-03-17T12:36:59;4.78;;;2.03;;
24008;SDS011;12217;50.792;4.372;2024-03-17T12:39:26;7.43;;;1.80;;
24008;SDS011;12217;50.792;4.372;2024-03-17T12:42:06;7.70;;;2.10;;
24008;SDS011;12217;50.792;4.372;2024-03-17T12:44:36;4.53;;;1.80;;
24008;SDS011;12217;50.792;4.372;2024-03-17T12:47:06;5.32;;;2.20;;
24008;SDS011;12217;50.792;4.372;2024-03-17T12:49:36;6.07;;;2.10;;
24008;SDS011;12217;50.792;4.372;2024-03-17T12:52:15;3.92;;;1.80;;
24008;SDS011;12217;50.792;4.372;2024-03-17T12:54:45;8.65;;;2.50;;
24008;SDS011;12217;50.792;4.372;2024-03-17T12:57:52;5.90;;;1.90;;
24008;SDS011;12217;50.792;4.372;2024-03-17T13:01:04;7.82;;;2.90;;
24008;SDS011;12217;50.792;4.372;2024-03-17T13:03:31;8.73;;;2.90;;
24008;SDS011;12217;50.792;4.372;2024-03-17T13:05:59;5.45;;;2.55;;
24008;SDS011;12217;50.792;4.372;2024-03-17T13:08:31;7.35;;;2.90;;
24008;SDS011;12217;50.792;4.372;2024-03-17T13:10:57;7.70;;;2.88;;
24008;SDS011;12217;50.792;4.372;2024-03-17T13:13:23;8.50;;;2.60;;
24008;SDS011;12217;50.792;4.372;2024-03-17T13:15:49;5.55;;;1.83;;
24008;SDS011;12217;50.792;4.372;2024-03-17T13:18:18;6.38;;;2.22;;
24008;SDS011;12217;50.792;4.372;2024-03-17T13:20:44;6.10;;;2.30;;
24008;SDS011;12217;50.792;4.372;2024-03-17T13:23:11;7.65;;;2.00;;
24008;SDS011;12217;50.792;4.372;2024-03-17T13:25:37;9.27;;;2.13;;
24008;SDS011;12217;50.792;4.372;2024-03-17T13:28:04;5.03;;;2.10;;
24008;SDS011;12217;50.792;4.372;2024-03-17T13:30:32;5.90;;;1.95;;
24008;SDS011;12217;50.792;4.372;2024-03-17T13:33:01;6.55;;;2.08;;
24008;SDS011;12217;50.792;4.372;2024-03-17T13:35:33;5.22;;;2.00;;
24008;SDS011;12217;50.792;4.372;2024-03-17T13:38:00;6.18;;;2.05;;
24008;SDS011;12217;50.792;4.372;2024-03-17T13:40:28;5.13;;;1.67;;
24008;SDS011;12217;50.792;4.372;2024-03-17T13:42:55;9.45;;;2.20;;
24008;SDS011;12217;50.792;4.372;2024-03-17T13:45:22;6.35;;;2.03;;
24008;SDS011;12217;50.792;4.372;2024-03-17T13:48:00;3.95;;;2.13;;
24008;SDS011;12217;50.792;4.372;2024-03-17T13:50:29;5.45;;;2.10;;
24008;SDS011;12217;50.792;4.372;2024-03-17T13:52:55;11.30;;;3.33;;
24008;SDS011;12217;50.792;4.372;2024-03-17T13:55:22;4.28;;;2.33;;
24008;SDS011;12217;50.792;4.372;2024-03-17T13:57:50;4.75;;;1.85;;
24008;SDS011;12217;50.792;4.372;2024-03-17T14:00:19;7.00;;;1.80;;
24008;SDS011;12217;50.792;4.372;2024-03-17T14:02:46;4.28;;;2.05;;
24008;SDS011;12217;50.792;4.372;2024-03-17T14:05:15;7.22;;;2.25;;
24008;SDS011;12217;50.792;4.372;2024-03-17T14:07:42;6.55;;;2.35;;
24008;SDS011;12217;50.792;4.372;2024-03-17T14:10:09;6.13;;;2.00;;
24008;SDS011;12217;50.792;4.372;2024-03-17T14:12:36;6.15;;;2.10;;
24008;SDS011;12217;50.792;4.372;2024-03-17T14:15:05;5.43;;;1.83;;
24008;SDS011;12217;50.792;4.372;2024-03-17T14:17:32;7.28;;;2.15;;
24008;SDS011;12217;50.792;4.372;2024-03-17T14:19:58;7.95;;;2.25;;
24008;SDS011;12217;50.792;4.372;2024-03-17T14:22:24;4.75;;;2.00;;
24008;SDS011;12217;50.792;4.372;2024-03-17T14:24:49;6.32;;;1.95;;
24008;SDS011;12217;50.792;4.372;2024-03-17T14:27:15;5.45;;;1.88;;
24008;SDS011;12217;50.792;4.372;2024-03-17T14:29:42;6.00;;;2.33;;
24008;SDS011;12217;50.792;4.372;2024-03-17T14:32:08;8.70;;;2.17;;
24008;SDS011;12217;50.792;4.372;2024-03-17T14:34:34;9.52;;;2.75;;
24008;SDS011;12217;50.792;4.372;2024-03-17T14:37:02;10.13;;;2.30;;
24008;SDS011;12217;50.792;4.372;2024-03-17T14:39:28;5.88;;;2.22;;
24008;SDS011;12217;50.792;4.372;2024-03-17T14:41:55;4.60;;;2.03;;
24008;SDS011;12217;50.792;4.372;2024-03-17T14:44:21;6.03;;;2.30;;
24008;SDS011;12217;50.792;4.372;2024-03-17T14:46:47;4.03;;;2.00;;
24008;SDS011;12217;50.792;4.372;2024-03-17T14:49:16;6.85;;;2.20;;
24008;SDS011;12217;50.792;4.372;2024-03-17T14:51:42;8.00;;;2.22;;
24008;SDS011;12217;50.792;4.372;2024-03-17T14:54:07;5.95;;;2.35;;
24008;SDS011;12217;50.792;4.372;2024-03-17T14:56:34;6.00;;;1.92;;
24008;SDS011;12217;50.792;4.372;2024-03-17T14:59:03;7.05;;;2.53;;
24008;SDS011;12217;50.792;4.372;2024-03-17T15:01:28;5.47;;;1.90;;
24008;SDS011;12217;50.792;4.372;2024-03-17T15:03:56;6.28;;;2.42;;
24008;SDS011;12217;50.792;4.372;2024-03-17T15:06:25;6.85;;;2.05;;
24008;SDS011;12217;50.792;4.372;2024-03-17T15:08:52;7.38;;;2.35;;
24008;SDS011;12217;50.792;4.372;2024-03-17T15:11:18;5.78;;;2.10;;
24008;SDS011;12217;50.792;4.372;2024-03-17T15:13:43;5.80;;;2.10;;
24008;SDS011;12217;50.792;4.372;2024-03-17T15:16:10;5.22;;;2.08;;
24008;SDS011;12217;50.792;4.372;2024-03-17T15:18:36;5.57;;;2.10;;
24008;SDS011;12217;50.792;4.372;2024-03-17T15:21:03;5.55;;;2.30;;